Dati Storici

Data ora Umidita' aria (%) Temperatura aria (°C) Rad globale (W/m²) Gonioanemometro (°) Tacoanemometro (m/s) Pioggia (mm)
03-11-2012 10:50 96.6 % 10.154 190.764 9.423 1.56 0
03-11-2012 10:40 96.5 % 9.772 152.844 11.959 0.71 0
03-11-2012 10:30 96.4 % 9.821 139.186 2.067 0.959 0
03-11-2012 10:20 95.9 % 9.642 163.521 12.754 1.493 0
03-11-2012 10:10 95.9 % 9.592 254.053 51.334 0.513 0
03-11-2012 10:00 96.6 % 9.11 133.436 11.553 0.742 0
03-11-2012 09:50 96.6 % 8.913 95.198 55.015 0.518 0
03-11-2012 09:40 96.7 % 8.866 77.165 121.853 0.384 0
03-11-2012 09:30 96.6 % 8.708 93.044 35.188 0.365 0
03-11-2012 09:20 96.7 % 8.616 77.91 9.17 0.392 0
03-11-2012 09:10 96.7 % 8.455 64.298 262.517 0.244 0
03-11-2012 09:00 96.8 % 8.411 62.668 290.666 0.276 0
03-11-2012 08:50 96.9 % 8.322 51.632 125.481 0.578 0
03-11-2012 08:40 96.8 % 8.224 36.199 15.059 0.335 0
03-11-2012 08:30 96.9 % 8.315 34.749 45.034 0.455 0
03-11-2012 08:20 96.9 % 8.243 25.773 322.837 1.226 0
03-11-2012 08:10 97 % 8.294 16.254 16.157 0.213 0
03-11-2012 08:00 97.1 % 8.32 9.365 238.523 0.129 0
03-11-2012 07:50 97.2 % 8.392 6.445 69.617 0.388 0
03-11-2012 07:40 97.4 % 8.38 4.548 59.961 0.764 0

I dati sono presentati in modo automatico a scopo informativo. In seguito a verifica i dati possono subire modifiche o essere invalidati e non riportati negli archivi definitivi.